Airport View

Enter AWOS ICAO identifier for current METAR.

ex. KFNL

KM21 262330Z AUTO 20004KT 10SM OVC022 07/04 A2996 RMK AO2 T00690037

26 Jan 2020 23:31

Frequency: 120.45

Phone: 270-338-7788

Other Area AWOS: K2I0 - KOWB - KHOP - KCKV

TAF AMD KOWB 262106Z 2621/2718 VRB04KT P6SM SCT035 TEMPO 2621/2701 VRB04KT P6SM BKN020 FM270200 VRB03KT P6SM VCSH BKN030 FM270600 VRB03KT P6SM BKN030 FM271000 VRB04KT P6SM BKN020 FM271300 32005KT P6SM BKN010 FM271600 32006KT P6SM BKN015